BIEG

Egilsstaðir Airport

Egilsstaðir, Iceland
METAR BIEG 241900Z 21010KT 9999 FEW045 SCT060 05/M01 Q1013 R04/190095
Observed Flight Rules
Feb-24 @ 19:00 UTC (an hour ago) Visual Flight Rules
Wind Visibility Clouds
210° at 10 knots 10,000+ meters
  • Few at 4,500' AGL
  • Scattered at 6,000' AGL
Temperatures Readings
Current 5°C / 41°F
Dewpoint -1°C / 30°F
Humidity 66%
Altimeter 29.91" Hg
Pressure 1013 hPa
Elevation 38
METAR BIEG 241900Z 21010KT 9999 FEW045 SCT060 05/M01 Q1013 R04/190095
Observed Flight Rules
Feb-24 @ 19:00 UTC
(an hour ago)
VFR
Wind Visibility
210° at 10 knots 10,000+ meters
Clouds
  • Few at 4,500' AGL
  • Scattered at 6,000' AGL
Temperature Dewpoint
5°C / 41°F -1°C / 30°F
Humidity Altimeter Pressure
66% 29.91" Hg 1013 hPa